createdAt,value
2023-03-01T02:56:44.007Z,0.82
2023-03-01T02:57:44.076Z,0.79
2023-03-01T02:58:44.098Z,0.80
2023-03-01T02:59:44.197Z,0.82
2023-03-01T03:00:44.262Z,0.83
2023-03-01T03:01:45.445Z,0.82
2023-03-01T03:02:44.316Z,0.84
2023-03-01T03:03:44.447Z,0.80
2023-03-01T03:04:44.484Z,0.83
2023-03-01T03:05:44.523Z,0.82
2023-03-01T03:06:44.573Z,0.82
2023-03-01T03:07:44.631Z,0.82
2023-03-01T03:08:44.634Z,0.81
2023-03-01T03:09:44.735Z,0.83
2023-03-01T03:10:44.743Z,0.86
2023-03-01T03:11:44.810Z,0.84
2023-03-01T03:12:44.844Z,0.83
2023-03-01T03:13:44.900Z,0.84
2023-03-01T03:14:44.972Z,0.85
2023-03-01T03:15:44.968Z,0.84
2023-03-01T03:16:45.104Z,0.86
2023-03-01T03:17:46.323Z,0.85
2023-03-01T03:18:45.106Z,0.85
2023-03-01T03:19:45.176Z,0.86
2023-03-01T03:20:45.208Z,0.85
2023-03-01T03:21:45.273Z,0.84
2023-03-01T03:22:45.293Z,0.86
2023-03-01T03:23:45.337Z,0.85
2023-03-01T03:24:45.400Z,0.87
2023-03-01T03:25:45.458Z,0.84
2023-03-01T03:26:45.484Z,0.82
2023-03-01T03:27:45.516Z,0.84
2023-03-01T03:28:45.581Z,0.83
2023-03-01T03:29:45.601Z,0.84
2023-03-01T03:30:45.651Z,0.88
2023-03-01T03:31:45.722Z,0.85
2023-03-01T03:32:45.692Z,0.87
2023-03-01T03:33:45.768Z,0.85
2023-03-01T03:34:45.792Z,0.86
2023-03-01T03:35:45.874Z,0.87
2023-03-01T03:36:45.887Z,0.87
2023-03-01T03:37:45.912Z,0.88
2023-03-01T03:38:45.941Z,0.87
2023-03-01T03:39:45.996Z,0.86
2023-03-01T03:40:45.987Z,0.87
2023-03-01T03:41:46.013Z,0.87
2023-03-01T03:42:46.096Z,0.88
2023-03-01T03:43:46.155Z,0.89
2023-03-01T03:44:46.117Z,0.88
2023-03-01T03:45:46.236Z,0.88
2023-03-01T03:46:46.174Z,0.87
2023-03-01T03:47:46.244Z,0.89
2023-03-01T03:48:46.239Z,0.87
2023-03-01T03:49:47.069Z,0.89
2023-03-01T03:50:46.334Z,0.88
2023-03-01T03:51:46.344Z,0.87
2023-03-01T03:52:46.370Z,0.89
2023-03-01T03:53:46.440Z,0.88
2023-03-01T03:54:46.475Z,0.87
2023-03-01T03:55:46.469Z,0.88
2023-03-01T03:56:46.537Z,0.90
2023-03-01T03:57:46.561Z,0.89
2023-03-01T03:58:46.594Z,0.89
2023-03-01T03:59:46.609Z,0.88
2023-03-01T04:00:46.617Z,0.87
2023-03-01T04:01:46.680Z,0.90
2023-03-01T04:02:46.784Z,0.88
2023-03-01T04:03:46.708Z,0.88
2023-03-01T04:04:46.723Z,0.89
2023-03-01T04:05:46.740Z,0.89
2023-03-01T04:06:46.886Z,0.87
2023-03-01T04:07:46.799Z,0.89
2023-03-01T04:08:46.802Z,0.90
2023-03-01T04:09:46.875Z,0.89
2023-03-01T04:10:46.880Z,0.89
2023-03-01T04:11:46.892Z,0.89
2023-03-01T04:12:46.879Z,0.89
2023-03-01T04:13:46.946Z,0.89
2023-03-01T04:14:48.707Z,0.89
2023-03-01T04:15:46.985Z,0.89
2023-03-01T04:16:46.987Z,0.89
2023-03-01T04:17:46.998Z,0.89
2023-03-01T04:18:47.009Z,0.90
2023-03-01T04:19:47.039Z,0.88
2023-03-01T04:20:47.052Z,0.90
2023-03-01T04:21:47.102Z,0.88
2023-03-01T04:22:47.108Z,0.92
2023-03-01T04:23:47.134Z,0.89
2023-03-01T04:24:47.150Z,0.90
2023-03-01T04:25:47.194Z,0.90
2023-03-01T04:26:47.185Z,0.89
2023-03-01T04:27:47.229Z,0.89
2023-03-01T04:28:47.228Z,0.89
2023-03-01T04:29:47.256Z,0.91
2023-03-01T04:30:47.250Z,0.90
2023-03-01T04:31:47.345Z,0.88
2023-03-01T04:32:47.296Z,0.91
2023-03-01T04:33:47.340Z,0.91
2023-03-01T04:34:47.367Z,0.89
2023-03-01T04:35:47.443Z,0.92
2023-03-01T04:36:47.448Z,0.91
2023-03-01T04:37:47.393Z,0.91
2023-03-01T04:38:47.376Z,0.94
2023-03-01T04:39:47.378Z,0.93
2023-03-01T04:40:47.439Z,0.93
2023-03-01T04:41:47.422Z,0.90
2023-03-01T04:42:47.438Z,0.92
2023-03-01T04:43:47.519Z,0.94
2023-03-01T04:44:47.475Z,0.92
2023-03-01T04:45:47.557Z,0.93
2023-03-01T04:46:47.536Z,0.91
2023-03-01T04:47:47.545Z,0.92
2023-03-01T04:48:47.603Z,0.91
2023-03-01T04:49:47.592Z,0.94
2023-03-01T04:50:47.624Z,0.91
2023-03-01T04:51:47.620Z,0.91
2023-03-01T04:52:47.610Z,0.91
2023-03-01T04:53:47.643Z,0.92
2023-03-01T04:54:47.630Z,0.92
2023-03-01T04:55:47.623Z,0.91
2023-03-01T04:56:47.681Z,0.92
2023-03-01T04:57:47.681Z,0.91
2023-03-01T04:58:47.690Z,0.90
2023-03-01T04:59:47.698Z,0.90
2023-03-01T05:00:47.739Z,0.90
2023-03-01T05:01:47.737Z,0.89
2023-03-01T05:02:47.775Z,0.90
2023-03-01T05:03:47.829Z,0.92
2023-03-01T05:04:47.847Z,0.92
2023-03-01T05:05:47.772Z,0.90
2023-03-01T05:06:47.794Z,0.90
2023-03-01T05:07:47.788Z,0.92
2023-03-01T05:08:47.797Z,0.91
2023-03-01T05:09:47.842Z,0.91
2023-03-01T05:10:47.851Z,0.91
2023-03-01T05:11:47.872Z,0.94
2023-03-01T05:12:47.894Z,0.91
2023-03-01T05:13:47.930Z,0.91
2023-03-01T05:14:47.929Z,0.91
2023-03-01T05:15:47.948Z,0.93
2023-03-01T05:16:47.943Z,0.93
2023-03-01T05:17:47.973Z,0.92
2023-03-01T05:18:48.003Z,0.93
2023-03-01T05:19:48.096Z,0.91
2023-03-01T05:20:48.029Z,0.92
2023-03-01T05:21:48.045Z,0.91
2023-03-01T05:22:48.088Z,0.94
2023-03-01T05:23:48.078Z,0.93
2023-03-01T05:24:48.096Z,0.92
2023-03-01T05:25:48.103Z,0.91
2023-03-01T05:26:48.136Z,0.92
2023-03-01T05:27:48.188Z,0.91
2023-03-01T05:28:48.198Z,0.92
2023-03-01T05:29:48.247Z,0.92
2023-03-01T05:30:48.260Z,0.89
2023-03-01T05:31:48.292Z,0.89
2023-03-01T06:00:48.873Z,0.76
2023-03-01T06:01:56.137Z,0.74
2023-03-01T06:46:57.230Z,12.17
2023-03-01T06:52:49.012Z,21.01
2023-03-01T06:53:49.033Z,21.93
2023-03-01T07:03:49.356Z,28.00
2023-03-01T08:03:50.685Z,26.18
2023-03-01T09:04:52.690Z,3.20
2023-03-01T09:05:52.716Z,1.29
2023-03-01T09:06:52.805Z,2.01
2023-03-01T09:07:52.855Z,2.45
2023-03-01T09:08:52.899Z,2.97
2023-03-01T09:09:52.941Z,2.94
2023-03-01T09:10:52.983Z,2.52
2023-03-01T09:11:53.009Z,2.06
2023-03-01T09:12:53.044Z,2.00
2023-03-01T09:13:53.257Z,1.80
2023-03-01T09:14:53.097Z,0.66
2023-03-01T09:15:53.115Z,0.43
2023-03-01T09:16:53.225Z,0.68
2023-03-01T09:17:53.224Z,1.30
2023-03-01T09:18:53.255Z,2.06
2023-03-01T09:19:53.251Z,2.61
2023-03-01T09:20:53.304Z,2.25
2023-03-01T09:21:53.319Z,3.66
2023-03-01T09:22:53.371Z,3.04
2023-03-01T09:23:53.747Z,3.39
2023-03-01T09:24:53.400Z,3.59
2023-03-01T09:25:53.421Z,4.77
2023-03-01T09:26:53.437Z,5.38
2023-03-01T09:27:53.498Z,5.23
2023-03-01T09:28:53.765Z,6.01
2023-03-01T09:29:53.614Z,6.58
2023-03-01T09:30:53.647Z,6.55
2023-03-01T09:31:53.672Z,6.67
2023-03-01T09:32:53.678Z,6.92
2023-03-01T09:33:53.750Z,8.04
2023-03-01T09:34:53.812Z,8.73
2023-03-01T09:35:53.710Z,8.80
2023-03-01T09:36:53.672Z,9.33
2023-03-01T09:37:54.093Z,9.66
2023-03-01T09:38:53.906Z,9.63
2023-03-01T09:39:53.715Z,9.45
2023-03-01T09:40:53.718Z,10.14
2023-03-01T09:41:53.729Z,9.82
2023-03-01T09:43:55.997Z,9.94
2023-03-01T10:18:56.830Z,5.38
2023-03-01T10:24:56.325Z,4.56
2023-03-01T10:37:56.330Z,6.00
2023-03-01T10:38:56.398Z,6.70
2023-03-01T10:39:56.450Z,7.07
2023-03-01T10:40:57.418Z,7.10
2023-03-01T10:41:56.421Z,7.34
2023-03-01T10:42:56.434Z,8.37
2023-03-01T10:43:56.392Z,10.00
2023-03-01T10:44:56.801Z,11.54
2023-03-01T10:45:56.438Z,13.45
2023-03-01T10:46:56.380Z,14.63
2023-03-01T10:47:56.394Z,15.76
2023-03-01T10:48:56.360Z,18.23
2023-03-01T10:49:56.805Z,16.36
2023-03-01T10:50:56.378Z,14.00
2023-03-01T10:51:56.344Z,8.15
2023-03-01T10:52:56.421Z,8.10
2023-03-01T10:53:56.476Z,7.78
2023-03-01T10:54:56.503Z,8.05
2023-03-01T10:55:56.630Z,8.11
2023-03-01T10:56:56.613Z,8.18
2023-03-01T10:57:56.902Z,5.26
2023-03-01T10:58:56.693Z,3.49
2023-03-01T10:59:56.839Z,3.54
2023-03-01T11:00:56.768Z,4.73
2023-03-01T11:01:56.748Z,5.84
2023-03-01T11:02:56.738Z,7.20
2023-03-01T11:03:56.713Z,7.12
2023-03-01T11:04:56.836Z,5.97
2023-03-01T11:05:56.793Z,5.75
2023-03-01T11:06:56.775Z,4.11
2023-03-01T11:07:56.725Z,3.59
2023-03-01T11:08:56.806Z,3.51
2023-03-01T11:09:56.804Z,3.82
2023-03-01T11:10:56.855Z,3.58
2023-03-01T11:11:56.932Z,3.67
2023-03-01T11:12:56.972Z,3.08
2023-03-01T11:13:57.026Z,2.78
2023-03-01T11:14:57.103Z,3.18
2023-03-01T11:15:57.138Z,3.55
2023-03-01T11:16:57.137Z,1.35
2023-03-01T11:18:05.944Z,1.42
2023-03-01T11:18:58.161Z,1.43
2023-03-01T11:20:02.626Z,1.49
2023-03-01T11:20:58.164Z,1.44
2023-03-01T11:21:57.187Z,1.59
2023-03-01T11:22:57.142Z,1.77
2023-03-01T11:23:57.158Z,2.34
2023-03-01T11:26:57.137Z,2.01
2023-03-01T11:27:57.107Z,2.56
2023-03-01T11:28:57.096Z,3.36
2023-03-01T11:31:07.543Z,2.39
2023-03-01T11:43:56.993Z,0.65
2023-03-01T11:44:57.361Z,1.26
2023-03-01T11:45:56.993Z,2.13
2023-03-01T11:46:57.291Z,3.04
2023-03-01T11:47:56.997Z,3.63
2023-03-01T11:48:57.016Z,4.47
2023-03-01T11:49:57.051Z,5.30
2023-03-01T11:50:57.082Z,5.93
2023-03-01T11:51:57.052Z,7.34
2023-03-01T11:52:57.133Z,9.01
2023-03-01T11:53:57.179Z,10.32
2023-03-01T11:54:57.162Z,10.77
2023-03-01T11:55:57.379Z,11.58
2023-03-01T11:56:57.240Z,11.61
2023-03-01T11:57:57.207Z,11.52
2023-03-01T11:58:57.273Z,11.79
2023-03-01T11:59:57.328Z,12.15
2023-03-01T12:00:57.408Z,11.93
2023-03-01T12:01:57.451Z,12.33
2023-03-01T12:02:57.511Z,12.60
2023-03-01T12:03:57.464Z,12.39
2023-03-01T12:04:57.495Z,12.44
2023-03-01T12:05:57.853Z,12.96
2023-03-01T12:06:57.790Z,12.95
2023-03-01T12:07:57.503Z,13.42
2023-03-01T12:08:57.524Z,14.15
2023-03-01T12:09:57.540Z,14.01
2023-03-01T12:10:57.552Z,14.31
2023-03-01T12:11:57.610Z,14.96
2023-03-01T12:12:57.695Z,14.66
2023-03-01T12:13:57.719Z,15.36
2023-03-01T12:14:57.814Z,15.47
2023-03-01T12:15:58.348Z,15.43
2023-03-01T12:16:57.933Z,15.58
2023-03-01T12:17:58.004Z,15.69
2023-03-01T12:18:57.994Z,16.12
2023-03-01T12:19:57.999Z,15.95
2023-03-01T12:20:58.099Z,16.18
2023-03-01T12:21:58.117Z,16.25
2023-03-01T12:22:59.188Z,16.79
2023-03-01T12:23:58.128Z,17.05
2023-03-01T12:24:58.111Z,17.39
2023-03-01T12:25:58.873Z,17.22
2023-03-01T12:26:58.154Z,17.17
2023-03-01T12:27:58.099Z,17.61
2023-03-01T12:28:58.154Z,17.60
2023-03-01T12:29:58.117Z,18.14
2023-03-01T12:30:58.390Z,18.02
2023-03-01T12:31:58.233Z,17.08
2023-03-01T12:32:58.165Z,17.17
2023-03-01T12:33:58.067Z,15.95
2023-03-01T12:34:58.067Z,16.36
2023-03-01T12:35:58.393Z,16.90
2023-03-01T12:36:58.054Z,17.84
2023-03-01T12:37:58.082Z,18.03
2023-03-01T12:38:58.057Z,17.82
2023-03-01T12:39:58.070Z,18.59
2023-03-01T12:40:58.037Z,18.30
2023-03-01T12:41:58.029Z,17.71
2023-03-01T12:42:58.021Z,18.25
2023-03-01T12:43:58.006Z,17.46
2023-03-01T12:44:58.015Z,18.02
2023-03-01T12:45:58.393Z,17.83
2023-03-01T12:46:57.984Z,18.28
2023-03-01T12:47:57.995Z,18.52
2023-03-01T12:48:57.969Z,18.19
2023-03-01T12:49:57.956Z,17.19
2023-03-01T12:50:58.038Z,17.54
2023-03-01T12:51:58.746Z,16.54
2023-03-01T12:52:57.977Z,16.49
2023-03-01T12:53:57.965Z,15.21
2023-03-01T12:54:57.929Z,15.99
2023-03-01T12:55:58.348Z,15.19
2023-03-01T12:56:57.962Z,15.61
2023-03-01T12:57:57.913Z,15.36
2023-03-01T12:58:58.940Z,15.33
2023-03-01T12:59:57.902Z,14.88
2023-03-01T13:00:57.914Z,14.73
2023-03-01T13:01:57.931Z,13.99
2023-03-01T13:02:57.882Z,14.13
2023-03-01T13:03:57.908Z,13.60
2023-03-01T13:04:57.864Z,13.58
2023-03-01T13:05:57.905Z,13.43
2023-03-01T13:06:57.855Z,15.24
2023-03-01T13:07:57.869Z,15.07
2023-03-01T13:08:57.859Z,18.20
2023-03-01T13:09:57.819Z,17.04
2023-03-01T13:10:57.840Z,15.01
2023-03-01T13:11:57.800Z,14.76
2023-03-01T13:12:57.815Z,14.58
2023-03-01T13:13:57.796Z,16.60
2023-03-01T13:14:57.784Z,17.95
2023-03-01T13:15:57.869Z,19.07
2023-03-01T13:16:57.780Z,18.68
2023-03-01T13:17:58.367Z,20.60
2023-03-01T13:18:57.786Z,20.17
2023-03-01T13:19:57.751Z,22.76
2023-03-01T13:20:57.739Z,23.21
2023-03-01T13:21:57.758Z,22.96
2023-03-01T13:22:57.735Z,25.25
2023-03-01T13:23:57.753Z,27.79
2023-03-01T13:24:57.733Z,27.47
2023-03-01T13:25:57.844Z,28.09
2023-03-01T13:26:57.692Z,29.43
2023-03-01T13:27:57.718Z,29.52
2023-03-01T13:28:57.706Z,31.75
2023-03-01T13:29:57.702Z,30.08
2023-03-01T13:30:57.876Z,30.84
2023-03-01T13:31:57.728Z,31.79
2023-03-01T13:32:57.746Z,32.12
2023-03-01T13:33:57.696Z,31.52
2023-03-01T13:34:57.679Z,31.04
2023-03-01T13:35:57.865Z,31.28
2023-03-01T13:36:57.691Z,31.34
2023-03-01T13:37:57.706Z,30.75
2023-03-01T13:38:57.774Z,31.76
2023-03-01T13:39:57.724Z,31.35
2023-03-01T13:40:57.769Z,31.36
2023-03-01T13:41:57.732Z,30.27
2023-03-01T13:43:05.708Z,31.21
2023-03-01T13:43:58.771Z,31.25
2023-03-01T13:44:57.718Z,31.31
2023-03-01T13:45:57.793Z,30.75
2023-03-01T13:46:57.746Z,30.34
2023-03-01T13:47:57.744Z,30.23
2023-03-01T13:48:57.713Z,30.59
2023-03-01T13:49:57.751Z,29.37
2023-03-01T13:50:57.723Z,29.68
2023-03-01T13:51:57.697Z,29.19
2023-03-01T13:52:57.702Z,28.79
2023-03-01T13:53:57.746Z,28.72
2023-03-01T13:54:57.668Z,29.07
2023-03-01T13:55:59.577Z,27.96
2023-03-01T13:56:57.683Z,27.29
2023-03-01T13:57:57.640Z,27.97
2023-03-01T13:58:57.658Z,27.28
2023-03-01T13:59:57.758Z,26.78
2023-03-01T14:00:57.723Z,27.17
2023-03-01T14:01:57.770Z,27.37
2023-03-01T14:03:05.606Z,26.44
2023-03-01T14:03:58.700Z,26.48
2023-03-01T14:04:57.630Z,26.37
2023-03-01T14:06:07.793Z,25.11
2023-03-01T14:06:58.841Z,26.47
2023-03-01T14:07:57.862Z,24.91
2023-03-01T14:08:57.871Z,24.76
2023-03-01T14:09:57.855Z,23.02
2023-03-01T14:10:57.863Z,22.51
2023-03-01T14:11:57.888Z,22.56
2023-03-01T14:13:03.184Z,22.36
2023-03-01T14:13:58.914Z,22.40
2023-03-01T14:14:57.875Z,22.50
2023-03-01T14:15:57.905Z,22.59
2023-03-01T14:16:57.880Z,22.36
2023-03-01T14:17:57.877Z,21.64
2023-03-01T14:18:57.839Z,21.35
2023-03-01T14:19:57.846Z,20.91
2023-03-01T14:20:57.842Z,21.93
2023-03-01T14:21:57.877Z,21.36
2023-03-01T14:22:57.858Z,21.03
2023-03-01T14:23:57.807Z,21.35
2023-03-01T14:24:57.881Z,21.39
2023-03-01T14:25:57.792Z,20.19
2023-03-01T14:26:57.941Z,19.75
2023-03-01T14:27:57.793Z,19.91
2023-03-01T14:28:57.784Z,19.73
2023-03-01T14:29:57.772Z,19.02
2023-03-01T14:30:57.794Z,18.95
2023-03-01T14:31:57.964Z,17.68
2023-03-01T14:32:57.773Z,18.31
2023-03-01T14:33:57.783Z,17.83
2023-03-01T14:34:57.760Z,17.76
2023-03-01T14:35:57.812Z,18.06
2023-03-01T14:36:57.778Z,17.43
2023-03-01T14:37:57.754Z,17.07
2023-03-01T14:38:57.715Z,18.13
2023-03-01T14:39:57.713Z,17.76
2023-03-01T14:40:57.695Z,17.44
2023-03-01T14:42:02.606Z,17.07
2023-03-01T14:42:58.705Z,17.08
2023-03-01T14:43:57.729Z,17.02
2023-03-01T14:44:57.694Z,16.71
2023-03-01T14:45:57.739Z,15.39
2023-03-01T14:46:57.663Z,15.76
2023-03-01T14:47:57.675Z,15.19
2023-03-01T14:48:57.673Z,15.21
2023-03-01T14:49:57.687Z,14.93
2023-03-01T14:50:57.661Z,14.71
2023-03-01T14:51:57.630Z,14.67
2023-03-01T14:52:58.008Z,14.61
2023-03-01T14:53:57.652Z,14.30
2023-03-01T14:54:57.617Z,14.39
2023-03-01T14:55:57.655Z,14.65
2023-03-01T14:56:57.600Z,14.06
2023-03-01T14:57:57.613Z,14.06
2023-03-01T14:58:57.609Z,13.94
2023-03-01T14:59:57.570Z,13.54
2023-03-01T15:00:57.563Z,13.67
2023-03-01T15:01:57.610Z,14.04
2023-03-01T15:02:57.703Z,13.51
2023-03-01T15:03:57.746Z,13.23
2023-03-01T15:04:57.694Z,13.36
2023-03-01T15:05:57.615Z,14.00
2023-03-01T15:06:57.654Z,13.11
2023-03-01T15:07:57.691Z,13.30
2023-03-01T15:08:57.622Z,13.11
2023-03-01T15:09:57.644Z,12.80
2023-03-01T15:10:57.653Z,12.99
2023-03-01T15:11:57.650Z,12.84
2023-03-01T15:12:57.662Z,12.93
2023-03-01T15:13:57.671Z,13.05
2023-03-01T15:15:03.754Z,12.94
2023-03-01T15:15:58.685Z,12.96
2023-03-01T15:16:57.932Z,12.82
2023-03-01T15:17:57.631Z,13.04
2023-03-01T15:18:57.633Z,13.07
2023-03-01T15:19:57.625Z,13.11
2023-03-01T15:20:57.608Z,12.44
2023-03-01T15:21:57.597Z,12.45
2023-03-01T15:22:57.577Z,12.87
2023-03-01T15:23:57.663Z,12.52
2023-03-01T15:24:57.574Z,12.56
2023-03-01T15:25:57.677Z,12.03
2023-03-01T15:26:57.578Z,11.54
2023-03-01T15:27:57.551Z,12.00
2023-03-01T15:28:57.571Z,11.55
2023-03-01T15:29:57.710Z,11.35
2023-03-01T15:30:57.685Z,11.49
2023-03-01T15:31:57.620Z,11.47
2023-03-01T15:32:57.519Z,11.76
2023-03-01T15:33:57.505Z,11.75
2023-03-01T15:34:57.504Z,11.17
2023-03-01T15:35:57.521Z,11.20
2023-03-01T15:36:57.487Z,11.26
2023-03-01T15:37:57.463Z,11.29
2023-03-01T15:38:58.451Z,10.95
2023-03-01T15:39:57.492Z,11.10
2023-03-01T15:40:57.456Z,11.15
2023-03-01T15:41:57.467Z,10.61
2023-03-01T15:42:57.425Z,10.89
2023-03-01T15:43:57.441Z,10.11
2023-03-01T15:44:58.008Z,10.31
2023-03-01T15:45:57.430Z,10.46
2023-03-01T15:46:57.526Z,10.46
2023-03-01T15:47:57.402Z,10.69
2023-03-01T15:48:57.453Z,10.85
2023-03-01T15:49:57.445Z,10.41
2023-03-01T15:50:57.389Z,10.48
2023-03-01T15:51:57.403Z,10.29
2023-03-01T15:52:57.382Z,10.57
2023-03-01T15:53:57.389Z,10.44
2023-03-01T15:55:57.380Z,10.15
2023-03-01T15:56:57.343Z,9.95
2023-03-01T15:57:57.355Z,10.02
2023-03-01T15:58:57.334Z,9.66
2023-03-01T15:59:57.939Z,9.62
2023-03-01T16:01:01.329Z,9.36
2023-03-01T16:01:57.320Z,9.38
2023-03-01T16:02:57.403Z,9.44
2023-03-01T16:03:57.341Z,9.67
2023-03-01T16:04:57.543Z,10.06
2023-03-01T16:05:57.317Z,10.00
2023-03-01T16:06:57.298Z,9.67
2023-03-01T16:07:57.303Z,9.42
2023-03-01T16:08:57.305Z,9.70
2023-03-01T16:09:57.325Z,9.58
2023-03-01T16:10:57.267Z,9.36
2023-03-01T16:11:57.265Z,9.05
2023-03-01T16:12:57.224Z,8.97
2023-03-01T16:13:57.294Z,9.17
2023-03-01T16:14:57.242Z,9.23
2023-03-01T16:15:57.285Z,8.88
2023-03-01T16:16:57.197Z,8.79
2023-03-01T16:17:57.223Z,8.16
2023-03-01T16:18:57.284Z,8.10
2023-03-01T16:19:57.298Z,7.72
2023-03-01T16:20:57.185Z,8.21
2023-03-01T16:21:57.181Z,7.77
2023-03-01T16:22:57.189Z,8.01
2023-03-01T16:23:57.165Z,7.80
2023-03-01T16:24:57.180Z,7.56
2023-03-01T16:25:57.177Z,7.45
2023-03-01T16:26:57.155Z,7.75
2023-03-01T16:27:57.141Z,7.36
2023-03-01T16:28:57.212Z,7.05
2023-03-01T16:29:57.140Z,6.98
2023-03-01T16:30:57.138Z,7.40
2023-03-01T16:31:57.233Z,7.45
2023-03-01T16:32:57.191Z,7.32
2023-03-01T16:33:57.172Z,7.42
2023-03-01T16:34:57.209Z,7.22
2023-03-01T16:35:57.294Z,7.36
2023-03-01T16:36:57.242Z,7.29
2023-03-01T16:37:57.303Z,6.74
2023-03-01T16:38:57.304Z,6.48
2023-03-01T16:39:57.333Z,6.52
2023-03-01T16:40:57.385Z,6.52
2023-03-01T16:41:57.392Z,6.43
2023-03-01T16:42:57.441Z,5.85
2023-03-01T16:43:57.485Z,6.23
2023-03-01T16:44:57.515Z,6.42
2023-03-01T16:45:57.571Z,6.42
2023-03-01T16:46:57.572Z,6.05
2023-03-01T16:47:57.595Z,6.26
2023-03-01T16:48:57.663Z,6.40
2023-03-01T16:49:57.664Z,6.27
2023-03-01T16:50:57.741Z,6.35
2023-03-01T16:51:57.753Z,6.30
2023-03-01T16:52:57.769Z,6.12
2023-03-01T16:53:57.846Z,6.39
2023-03-01T16:54:57.873Z,6.24
2023-03-01T16:55:57.943Z,6.25
2023-03-01T16:56:57.944Z,6.15
2023-03-01T16:57:57.974Z,6.00
2023-03-01T16:58:58.056Z,6.01
2023-03-01T16:59:58.108Z,5.82
2023-03-01T17:00:58.186Z,5.92
2023-03-01T17:01:58.182Z,6.09
2023-03-01T17:02:58.247Z,5.98
2023-03-01T17:03:58.252Z,6.11
2023-03-01T17:04:58.302Z,6.13
2023-03-01T17:05:58.356Z,6.30
2023-03-01T17:06:58.404Z,6.63
2023-03-01T17:07:58.460Z,6.70
2023-03-01T17:08:58.478Z,6.62
2023-03-01T17:09:58.527Z,6.48
2023-03-01T17:10:58.591Z,6.22
2023-03-01T17:11:58.650Z,6.20
2023-03-01T17:12:58.698Z,6.02
2023-03-01T17:13:58.761Z,6.03
2023-03-01T17:14:58.820Z,5.86
2023-03-01T17:15:58.859Z,5.94
2023-03-01T17:16:59.300Z,6.03
2023-03-01T17:17:58.933Z,5.95
2023-03-01T17:18:58.932Z,5.80
2023-03-01T17:19:59.966Z,5.70
2023-03-01T17:20:59.011Z,5.54
2023-03-01T17:21:59.164Z,5.53
2023-03-01T17:22:59.134Z,5.86
2023-03-01T17:23:59.224Z,5.83
2023-03-01T17:24:59.297Z,5.80
2023-03-01T17:25:59.331Z,5.72
2023-03-01T17:26:59.357Z,5.75
2023-03-01T17:27:59.483Z,5.61
2023-03-01T17:28:59.482Z,5.83
2023-03-01T17:29:59.558Z,5.58
2023-03-01T17:30:59.629Z,5.56
2023-03-01T17:31:59.741Z,5.94
2023-03-01T17:32:59.756Z,5.73
2023-03-01T17:34:01.547Z,5.70
2023-03-01T17:34:59.868Z,5.82
2023-03-01T17:35:59.994Z,5.66
2023-03-01T17:36:59.967Z,5.72
2023-03-01T17:37:59.997Z,5.88
2023-03-01T17:39:00.104Z,5.69
2023-03-01T17:40:00.184Z,5.50
2023-03-01T17:41:00.194Z,5.68
2023-03-01T17:42:00.267Z,5.62
2023-03-01T17:43:00.309Z,5.47
2023-03-01T17:44:00.311Z,5.46
2023-03-01T17:45:00.401Z,5.69
2023-03-01T17:46:00.428Z,5.70
2023-03-01T17:47:00.464Z,5.70
2023-03-01T17:48:00.535Z,5.62
2023-03-01T17:49:00.595Z,5.50
2023-03-01T17:50:00.654Z,5.33
2023-03-01T17:51:00.696Z,5.64
2023-03-01T17:52:00.775Z,5.73
2023-03-01T17:53:00.811Z,5.84
2023-03-01T17:54:00.879Z,5.44
2023-03-01T17:55:00.934Z,5.50
2023-03-01T17:56:00.973Z,5.38
2023-03-01T17:57:01.045Z,5.29
2023-03-01T17:59:01.113Z,5.60
2023-03-01T18:00:01.192Z,5.24
2023-03-01T18:01:01.257Z,5.25
2023-03-01T18:02:01.317Z,5.09
2023-03-01T18:03:01.350Z,5.23
2023-03-01T18:04:01.402Z,5.30
2023-03-01T18:05:01.434Z,5.29
2023-03-01T18:06:01.480Z,5.03
2023-03-01T18:07:01.529Z,5.15
2023-03-01T18:08:01.598Z,5.25
2023-03-01T18:09:01.649Z,5.19
2023-03-01T18:10:01.686Z,5.16
2023-03-01T18:11:01.713Z,5.21
2023-03-01T18:12:01.754Z,5.19
2023-03-01T18:13:01.814Z,5.30
2023-03-01T18:14:01.841Z,5.12
2023-03-01T18:15:01.890Z,5.11
2023-03-01T18:16:01.932Z,4.99
2023-03-01T18:17:02.037Z,4.96
2023-03-01T18:18:02.025Z,5.35
2023-03-01T18:19:02.058Z,5.07
2023-03-01T18:20:02.029Z,4.86
2023-03-01T18:21:02.086Z,4.90
2023-03-01T18:22:02.093Z,4.66
2023-03-01T18:23:02.103Z,4.94
2023-03-01T18:24:02.174Z,4.79
2023-03-01T18:25:02.204Z,4.92
2023-03-01T18:26:02.224Z,4.76
2023-03-01T18:27:02.257Z,4.76
2023-03-01T18:28:02.267Z,4.94
2023-03-01T18:29:02.281Z,5.03
2023-03-01T18:30:02.319Z,4.87
2023-03-01T18:31:02.378Z,4.74
2023-03-01T18:32:02.503Z,4.80
2023-03-01T18:33:02.447Z,4.81
2023-03-01T18:34:02.454Z,4.80
2023-03-01T18:35:02.511Z,4.83
2023-03-01T18:36:02.536Z,4.85
2023-03-01T18:37:10.063Z,4.86
2023-03-01T18:38:03.551Z,4.87
2023-03-01T18:39:02.536Z,4.88
2023-03-01T18:40:02.537Z,4.90
2023-03-01T18:41:02.537Z,4.89
2023-03-01T18:42:02.482Z,4.88
2023-03-01T18:43:02.520Z,4.89
2023-03-01T18:44:02.510Z,4.88
2023-03-01T18:45:02.505Z,4.87
2023-03-01T18:46:02.660Z,4.98
2023-03-01T18:47:02.486Z,4.89
2023-03-01T18:48:02.492Z,4.93
2023-03-01T18:49:02.485Z,4.74
2023-03-01T18:50:02.466Z,4.79
2023-03-01T18:51:02.496Z,4.99
2023-03-01T18:52:02.434Z,4.86
2023-03-01T18:53:02.482Z,4.64
2023-03-01T18:54:02.444Z,4.62
2023-03-01T18:55:02.503Z,4.80
2023-03-01T18:56:02.562Z,4.82
2023-03-01T18:57:02.530Z,4.72
2023-03-01T18:58:02.590Z,4.90
2023-03-01T18:59:02.632Z,4.89
2023-03-01T19:00:02.616Z,4.74
2023-03-01T19:01:02.706Z,4.83
2023-03-01T19:02:02.859Z,4.61
2023-03-01T19:03:02.701Z,4.65
2023-03-01T19:04:02.711Z,4.79
2023-03-01T19:05:02.758Z,4.65
2023-03-01T19:06:02.759Z,4.75
2023-03-01T19:07:02.811Z,4.51
2023-03-01T19:08:02.819Z,4.62
2023-03-01T19:09:02.824Z,4.60
2023-03-01T19:10:02.878Z,4.36
2023-03-01T19:11:02.893Z,4.77
2023-03-01T19:12:02.922Z,4.67
2023-03-01T19:13:02.952Z,4.64
2023-03-01T19:14:02.952Z,5.13
2023-03-01T19:15:02.990Z,4.93
2023-03-01T19:16:03.106Z,4.89
2023-03-01T21:50:03.851Z,4.28
2023-03-01T21:51:03.890Z,4.15
2023-03-01T21:52:03.909Z,4.14
2023-03-01T21:53:03.867Z,3.94
2023-03-01T21:54:03.885Z,3.98
2023-03-01T21:55:03.879Z,4.16
2023-03-01T21:56:03.892Z,4.07
2023-03-01T21:57:03.921Z,4.17
2023-03-01T21:58:03.974Z,4.20
2023-03-01T21:59:03.907Z,4.10
2023-03-01T22:00:03.918Z,4.18
2023-03-01T22:01:03.956Z,4.24
2023-03-01T22:02:03.937Z,4.13
2023-03-01T22:03:04.084Z,4.21
2023-03-01T22:04:03.962Z,4.35
2023-03-01T22:05:03.987Z,4.08
2023-03-01T22:06:03.976Z,4.08
2023-03-01T22:07:03.974Z,4.17
2023-03-01T22:08:03.965Z,4.26
2023-03-01T22:09:03.967Z,4.09
2023-03-01T22:10:03.982Z,4.04
2023-03-01T22:11:04.014Z,4.23
2023-03-01T22:12:04.024Z,4.11
2023-03-01T22:13:04.008Z,4.06
2023-03-01T22:14:04.013Z,4.14
2023-03-01T22:15:04.026Z,4.05
2023-03-01T22:16:04.063Z,3.95
2023-03-01T22:17:04.078Z,4.04
2023-03-01T22:18:04.053Z,4.06
2023-03-01T22:19:04.067Z,4.00
2023-03-01T22:20:04.031Z,4.11
2023-03-01T22:21:04.057Z,4.11
2023-03-01T22:22:04.079Z,3.91
2023-03-01T22:23:04.088Z,3.93
